Time;durP1;ratioP1;P1;durP2;ratioP2;P2;SDS_P1;SDS_P2;PMS_P1;PMS_P2;Temp;Humidity;BMP_temperature;BMP_pressure;BME280_temperature;BME280_humidity;BME280_pressure;Samples;Min_cycle;Max_cycle;Signal;HPM_P1;HPM_P2
2022/01/02 00:01:51;;;;;;;7.72;6.78;;;;;;;9.26;100.00;62951.06;5105069;28;20242;-75
2022/01/02 00:04:20;;;;;;;8.45;7.10;;;;;;;9.27;100.00;62952.09;5105954;28;20235;-75
2022/01/02 00:06:51;;;;;;;7.82;6.63;;;;;;;9.26;100.00;62953.59;5106145;28;20204;-75
2022/01/02 00:09:31;;;;;;;9.52;7.15;;;;;;;9.29;100.00;62958.72;5106609;28;20223;-74
2022/01/02 00:12:04;;;;;;;7.95;6.53;;;;;;;9.34;100.00;62959.31;5105169;28;20199;-74
2022/01/02 00:14:34;;;;;;;6.80;6.10;;;;;;;9.34;100.00;62961.34;5108016;28;20226;-75
2022/01/02 00:17:02;;;;;;;8.57;7.20;;;;;;;9.36;100.00;62963.41;5109309;28;20188;-75
2022/01/02 00:19:32;;;;;;;8.95;7.32;;;;;;;9.33;100.00;62955.75;5107471;28;20212;-76
2022/01/02 00:22:02;;;;;;;7.93;6.90;;;;;;;9.43;100.00;62973.19;5106362;28;20418;-78
2022/01/02 00:24:32;;;;;;;7.28;6.57;;;;;;;9.33;100.00;62955.25;5106256;28;20232;-76
2022/01/02 00:27:00;;;;;;;9.40;7.50;;;;;;;9.46;100.00;62973.75;5104837;28;20271;-76
2022/01/02 00:29:27;;;;;;;7.47;6.78;;;;;;;9.46;100.00;62971.22;5105068;28;20261;-75
2022/01/02 00:31:55;;;;;;;7.80;7.05;;;;;;;9.43;100.00;62970.13;5103934;28;20192;-75
2022/01/02 00:34:23;;;;;;;11.00;7.50;;;;;;;9.42;100.00;62964.03;5104871;28;20237;-76
2022/01/02 00:36:54;;;;;;;9.18;6.50;;;;;;;9.47;100.00;62974.81;5107092;28;20204;-78
2022/01/02 00:39:22;;;;;;;8.25;6.65;;;;;;;9.44;100.00;62971.69;5106615;28;20219;-75
2022/01/02 00:41:55;;;;;;;7.55;6.72;;;;;;;9.43;100.00;62970.13;5103838;28;20222;-75
2022/01/02 00:44:32;;;;;;;9.10;7.22;;;;;;;9.42;100.00;62969.63;5103565;28;20239;-76
2022/01/02 00:47:08;;;;;;;7.68;6.97;;;;;;;9.45;100.00;62967.66;5106753;28;20195;-75
2022/01/02 00:49:40;;;;;;;7.68;6.80;;;;;;;9.46;100.00;62970.72;5103761;28;20250;-76
2022/01/02 00:52:12;;;;;;;8.57;6.78;;;;;;;9.51;100.00;62978.94;5105220;28;20200;-76
2022/01/02 00:54:41;;;;;;;7.57;6.43;;;;;;;9.51;100.00;62976.38;5106231;28;20216;-76
2022/01/02 00:57:14;;;;;;;7.85;6.90;;;;;;;9.52;100.00;62976.91;5104440;28;20237;-75
2022/01/02 00:59:49;;;;;;;8.00;6.57;;;;;;;9.49;100.00;62978.88;5104612;28;20451;-76
2022/01/02 01:02:19;;;;;;;7.65;6.80;;;;;;;9.53;100.00;62983.53;5105146;28;20217;-75
2022/01/02 01:04:49;;;;;;;9.18;6.10;;;;;;;9.50;100.00;62977.91;5104318;28;20231;-75
2022/01/02 01:07:16;;;;;;;8.38;6.15;;;;;;;9.60;100.00;62985.16;5104665;28;20472;-75
2022/01/02 01:09:42;;;;;;;6.30;5.70;;;;;;;9.59;100.00;62984.16;5105113;28;20215;-75
2022/01/02 01:12:11;;;;;;;5.68;5.28;;;;;;;9.56;100.00;62979.00;5105617;28;20204;-76
2022/01/02 01:14:38;;;;;;;6.53;5.93;;;;;;;9.57;100.00;62985.13;5104842;28;20228;-75
2022/01/02 01:17:05;;;;;;;7.03;5.47;;;;;;;9.55;100.00;62982.53;5104335;28;20191;-75
2022/01/02 01:19:32;;;;;;;5.55;5.10;;;;;;;9.57;100.00;62985.13;5104077;28;20527;-74
2022/01/02 01:21:59;;;;;;;6.03;5.53;;;;;;;9.61;100.00;62988.75;5103635;28;20221;-76
2022/01/02 01:24:25;;;;;;;5.75;5.20;;;;;;;9.66;100.00;62989.38;5102725;28;20236;-76
2022/01/02 01:26:55;;;;;;;5.78;5.35;;;;;;;9.75;100.00;63000.69;5104117;28;20452;-76
2022/01/02 01:29:24;;;;;;;6.13;5.53;;;;;;;9.67;100.00;62992.41;5103809;28;20215;-77
2022/01/02 01:31:51;;;;;;;5.47;5.07;;;;;;;9.64;100.00;62989.31;5102143;28;20200;-75
2022/01/02 01:34:18;;;;;;;5.10;4.60;;;;;;;9.58;100.00;62983.13;5102319;28;20269;-76
2022/01/02 01:36:45;;;;;;;5.20;4.80;;;;;;;9.62;100.00;62984.69;5104277;28;20254;-76
2022/01/02 01:39:11;;;;;;;5.75;5.13;;;;;;;9.63;100.00;62988.28;5102471;28;20237;-76
2022/01/02 01:41:39;;;;;;;5.53;5.03;;;;;;;9.62;100.00;62989.78;5100030;28;20196;-77
2022/01/02 01:44:21;;;;;;;5.80;5.20;;;;;;;9.70;100.00;62996.03;5117007;28;20250;-75
2022/01/02 01:46:54;;;;;;;5.55;5.05;;;;;;;9.71;100.00;62994.53;5105991;28;20196;-76
2022/01/02 01:49:24;;;;;;;4.70;4.40;;;;;;;9.70;100.00;62995.53;5107288;28;20234;-75
2022/01/02 01:51:51;;;;;;;4.97;4.57;;;;;;;9.68;100.00;62999.03;5107190;28;20222;-75
2022/01/02 01:54:18;;;;;;;5.50;4.78;;;;;;;9.71;100.00;62996.56;5107621;28;20220;-77
2022/01/02 01:56:46;;;;;;;4.93;4.53;;;;;;;9.73;100.00;63001.16;5109464;28;20202;-75
2022/01/02 01:59:15;;;;;;;7.57;5.35;;;;;;;9.68;100.00;62988.38;5107628;28;20220;-75
2022/01/02 02:01:41;;;;;;;5.65;3.80;;;;;;;9.65;100.00;62990.34;5106884;28;20271;-73
2022/01/02 02:04:10;;;;;;;4.25;3.95;;;;;;;9.68;100.00;62996.50;5088740;28;20286;-76
2022/01/02 02:06:37;;;;;;;7.03;4.50;;;;;;;9.72;100.00;62998.09;5102552;28;21725;-75
2022/01/02 02:09:04;;;;;;;5.85;5.13;;;;;;;9.68;100.00;62993.97;5107275;28;20216;-76
2022/01/02 02:11:32;;;;;;;5.32;4.90;;;;;;;9.68;100.00;63001.09;5107429;28;20242;-76
2022/01/02 02:13:59;;;;;;;4.30;3.95;;;;;;;9.67;100.00;62989.88;5109724;28;20275;-76
2022/01/02 02:16:28;;;;;;;5.22;4.70;;;;;;;9.58;100.00;62983.13;5088906;28;20416;-76
2022/01/02 02:18:54;;;;;;;4.65;4.25;;;;;;;9.59;100.00;62986.69;5091137;28;20235;-75
2022/01/02 02:21:30;;;;;;;4.60;4.30;;;;;;;9.62;100.00;62987.25;5107434;28;20215;-76
2022/01/02 02:23:57;;;;;;;5.32;4.82;;;;;;;9.64;100.00;62992.38;5106921;28;20239;-76
2022/01/02 02:26:24;;;;;;;5.28;4.88;;;;;;;9.63;100.00;62985.75;5106690;28;20204;-74
2022/01/02 02:28:50;;;;;;;5.18;4.68;;;;;;;9.57;100.00;62984.63;5106875;28;20264;-75
2022/01/02 02:31:17;;;;;;;4.97;4.57;;;;;;;9.64;100.00;62989.84;5106618;28;20265;-76
2022/01/02 02:33:44;;;;;;;4.90;4.50;;;;;;;9.61;100.00;62991.31;5106929;28;20211;-75
2022/01/02 02:36:11;;;;;;;5.15;4.75;;;;;;;9.66;100.00;62991.38;5106741;28;20480;-75
2022/01/02 02:38:40;;;;;;;5.38;4.90;;;;;;;9.61;100.00;62986.72;5107178;28;20227;-74
2022/01/02 02:41:07;;;;;;;5.15;4.75;;;;;;;9.60;100.00;62985.69;5107189;28;20204;-75
2022/01/02 02:43:42;;;;;;;4.90;4.47;;;;;;;9.54;100.00;62978.97;5107316;28;20219;-75
2022/01/02 02:49:05;;;;;;;5.82;5.30;;;;;;;9.66;100.00;62991.38;5108803;28;20230;-74
2022/01/02 02:51:40;;;;;;;4.65;4.35;;;;;;;9.66;100.00;62988.84;5118404;28;20194;-76
2022/01/02 02:54:10;;;;;;;4.63;4.28;;;;;;;9.60;100.00;62990.25;5126279;28;20246;-76
2022/01/02 02:56:45;;;;;;;5.05;4.55;;;;;;;9.59;100.00;62987.22;5126810;28;20196;-75
2022/01/02 02:59:13;;;;;;;5.18;4.75;;;;;;;9.59;100.00;62989.22;5108473;28;20305;-74
2022/01/02 03:01:41;;;;;;;4.18;3.88;;;;;;;9.64;100.00;62989.31;5111461;28;20219;-76
2022/01/02 03:04:08;;;;;;;4.90;4.50;;;;;;;9.57;100.00;62985.13;5119434;28;20284;-76
2022/01/02 03:06:34;;;;;;;4.57;4.18;;;;;;;9.53;100.00;62980.47;5106935;28;20356;-75
2022/01/02 03:09:07;;;;;;;4.38;4.07;;;;;;;9.55;100.00;62982.53;5106917;28;20277;-75
2022/01/02 03:11:36;;;;;;;4.53;4.22;;;;;;;9.53;100.00;62972.84;5106375;28;20203;-75
2022/01/02 03:14:04;;;;;;;5.28;4.72;;;;;;;9.63;100.00;62983.19;5106759;28;20223;-75
2022/01/02 03:16:31;;;;;;;4.88;4.35;;;;;;;9.64;100.00;62991.84;5106131;28;20196;-75
2022/01/02 03:18:58;;;;;;;5.53;5.03;;;;;;;9.59;100.00;62981.59;5106329;28;20215;-76
2022/01/02 03:21:25;;;;;;;5.85;4.43;;;;;;;9.56;100.00;62983.59;5105144;28;20196;-75
2022/01/02 03:23:52;;;;;;;5.82;5.32;;;;;;;9.58;100.00;62983.13;5106294;28;20228;-75
2022/01/02 03:26:19;;;;;;;5.25;4.63;;;;;;;9.52;100.00;62974.88;5106145;28;20267;-76
2022/01/02 03:28:48;;;;;;;5.10;4.70;;;;;;;9.60;100.00;62985.16;5105903;28;20427;-76
2022/01/02 03:31:15;;;;;;;7.15;5.30;;;;;;;9.44;100.00;62969.13;5105953;28;20508;-76
2022/01/02 03:33:42;;;;;;;5.45;4.95;;;;;;;9.41;100.00;62962.97;5106069;28;20216;-75
2022/01/02 03:36:08;;;;;;;4.72;4.35;;;;;;;9.44;100.00;62971.19;5105942;28;20241;-75
2022/01/02 03:38:35;;;;;;;5.70;5.20;;;;;;;9.46;100.00;62968.16;5106147;28;20261;-75
2022/01/02 03:41:02;;;;;;;5.13;4.72;;;;;;;9.39;100.00;62963.97;5114997;28;20199;-76
2022/01/02 03:43:29;;;;;;;6.32;5.00;;;;;;;9.40;100.00;62964.50;5107122;28;20212;-76
2022/01/02 03:45:57;;;;;;;5.60;4.95;;;;;;;9.34;100.00;62956.28;5106105;28;20463;-76
2022/01/02 03:48:24;;;;;;;5.65;5.15;;;;;;;9.29;100.00;62956.69;5106633;28;20231;-75
2022/01/02 03:50:51;;;;;;;5.47;5.03;;;;;;;9.32;100.00;62954.19;5105644;28;20562;-75
2022/01/02 03:53:18;;;;;;;5.03;4.47;;;;;;;9.28;100.00;62950.06;5105685;28;20216;-75
2022/01/02 03:55:45;;;;;;;5.38;4.97;;;;;;;9.26;100.00;62951.06;5107819;28;20196;-75
2022/01/02 03:58:12;;;;;;;5.18;4.75;;;;;;;9.25;100.00;62950.03;5109382;28;20212;-75
2022/01/02 04:00:39;;;;;;;5.55;5.03;;;;;;;9.22;100.00;62946.94;5108368;28;20188;-75
2022/01/02 04:03:07;;;;;;;5.07;4.57;;;;;;;9.17;100.00;62938.69;5108130;28;20233;-76
2022/01/02 04:05:33;;;;;;;5.00;4.60;;;;;;;9.14;100.00;62940.69;5104789;28;20277;-76
2022/01/02 04:08:00;;;;;;;5.28;4.80;;;;;;;9.06;100.00;62929.88;5104448;28;20200;-76
2022/01/02 04:10:27;;;;;;;5.30;4.80;;;;;;;9.04;100.00;62923.22;5104797;28;20648;-76
2022/01/02 04:12:54;;;;;;;5.63;5.13;;;;;;;9.08;100.00;62926.84;5104934;28;20218;-75
2022/01/02 04:15:21;;;;;;;5.68;5.18;;;;;;;9.11;100.00;62940.13;5104274;28;20226;-76
2022/01/02 04:17:48;;;;;;;5.40;4.93;;;;;;;9.07;100.00;62933.97;5104139;28;20214;-75
2022/01/02 04:20:16;;;;;;;6.30;5.63;;;;;;;9.03;100.00;62929.81;5105563;28;20218;-75
2022/01/02 04:22:45;;;;;;;5.53;4.90;;;;;;;8.99;100.00;62922.66;5102753;28;20207;-76
2022/01/02 04:25:13;;;;;;;5.20;4.75;;;;;;;9.07;100.00;62931.44;5103945;28;20516;-75
2022/01/02 04:27:40;;;;;;;7.15;5.10;;;;;;;9.14;100.00;62938.66;5103799;28;20204;-74
2022/01/02 04:30:10;;;;;;;6.35;5.70;;;;;;;9.11;100.00;62927.94;5104511;28;20216;-75
2022/01/02 04:32:37;;;;;;;5.72;5.22;;;;;;;9.16;100.00;62940.72;5104632;28;20499;-75
2022/01/02 04:35:04;;;;;;;7.28;5.00;;;;;;;9.17;100.00;62943.78;5104700;28;20216;-75
2022/01/02 04:37:33;;;;;;;6.25;4.65;;;;;;;9.24;100.00;62949.00;5103558;28;20485;-76
2022/01/02 04:40:00;;;;;;;5.18;4.65;;;;;;;9.21;100.00;62945.88;5105604;28;20269;-76
2022/01/02 04:42:27;;;;;;;5.55;4.38;;;;;;;9.23;100.00;62950.00;5091324;28;20205;-75
2022/01/02 04:44:54;;;;;;;5.40;4.93;;;;;;;9.25;100.00;62952.03;5102687;28;20240;-76
2022/01/02 04:47:21;;;;;;;5.60;5.05;;;;;;;9.30;100.00;62952.16;5104966;28;20195;-75
2022/01/02 04:49:48;;;;;;;6.22;5.63;;;;;;;9.30;100.00;62952.66;5125377;28;20215;-75
2022/01/02 04:52:15;;;;;;;6.03;5.53;;;;;;;9.33;100.00;62958.31;5125210;28;20196;-76
2022/01/02 04:54:43;;;;;;;6.13;5.45;;;;;;;9.27;100.00;62954.63;5116091;28;20440;-75
2022/01/02 04:57:10;;;;;;;5.10;4.75;;;;;;;9.39;100.00;62963.97;5104805;28;20196;-74
2022/01/02 04:59:38;;;;;;;5.65;5.15;;;;;;;9.33;100.00;62960.31;5104202;28;20532;-77
2022/01/02 05:02:05;;;;;;;5.88;5.15;;;;;;;9.30;100.00;62959.78;5104067;28;20204;-75
2022/01/02 05:04:32;;;;;;;5.10;4.80;;;;;;;9.32;100.00;62952.19;5104357;28;20281;-75
2022/01/02 05:06:59;;;;;;;5.75;5.28;;;;;;;9.26;100.00;62950.53;5107551;28;20196;-76
2022/01/02 05:09:26;;;;;;;5.38;4.93;;;;;;;9.34;100.00;62961.88;5105193;28;20239;-74
2022/01/02 05:11:54;;;;;;;6.03;5.43;;;;;;;9.31;100.00;62958.78;5108067;28;20366;-76
2022/01/02 05:14:20;;;;;;;6.18;5.15;;;;;;;9.30;100.00;62957.22;5104913;28;20219;-74
2022/01/02 05:16:47;;;;;;;5.70;5.28;;;;;;;9.39;100.00;62968.56;5105652;28;20196;-74
2022/01/02 05:19:14;;;;;;;5.88;5.30;;;;;;;9.34;100.00;62961.34;5105204;28;20268;-74
2022/01/02 05:21:41;;;;;;;6.03;5.53;;;;;;;9.32;100.00;62956.75;5106369;28;20204;-75
2022/01/02 05:24:08;;;;;;;6.45;5.25;;;;;;;9.25;100.00;62952.03;5107651;28;20258;-74
2022/01/02 05:26:35;;;;;;;5.88;5.35;;;;;;;9.35;100.00;62960.34;5106351;28;20237;-76
2022/01/02 05:29:04;;;;;;;6.32;5.47;;;;;;;9.30;100.00;62957.72;5104562;28;20234;-74
2022/01/02 05:31:31;;;;;;;5.50;5.00;;;;;;;9.28;100.00;62958.19;5084535;28;20219;-75
2022/01/02 05:33:58;;;;;;;6.82;5.78;;;;;;;9.19;100.00;62945.84;5086265;28;20233;-76
2022/01/02 05:36:25;;;;;;;5.78;5.20;;;;;;;9.27;100.00;62954.63;5105654;28;20515;-76
2022/01/02 05:38:52;;;;;;;5.97;5.20;;;;;;;9.28;100.00;62952.63;5106338;28;20220;-75
2022/01/02 05:41:19;;;;;;;4.68;4.28;;;;;;;9.25;100.00;62952.03;5104381;28;20218;-75
2022/01/02 05:43:46;;;;;;;5.80;5.30;;;;;;;9.27;100.00;62952.09;5103613;28;20258;-75
2022/01/02 05:46:14;;;;;;;5.78;5.28;;;;;;;9.26;100.00;62948.53;5108681;28;20227;-75
2022/01/02 05:48:41;;;;;;;5.70;5.20;;;;;;;9.30;100.00;62955.19;5103568;28;20247;-75
2022/01/02 05:51:08;;;;;;;5.38;4.90;;;;;;;9.34;100.00;62964.41;5103035;28;20196;-75
2022/01/02 05:53:35;;;;;;;5.53;4.72;;;;;;;9.27;100.00;62959.72;5102749;28;20220;-75
2022/01/02 05:56:02;;;;;;;4.57;4.18;;;;;;;9.28;100.00;62955.66;5103661;28;20196;-75
2022/01/02 05:58:29;;;;;;;4.53;4.13;;;;;;;9.39;100.00;62966.50;5103769;28;20224;-75
2022/01/02 06:00:56;;;;;;;5.32;4.72;;;;;;;9.35;100.00;62962.41;5103619;28;20488;-74
2022/01/02 06:03:24;;;;;;;5.10;4.70;;;;;;;9.37;100.00;62961.41;5108717;28;20261;-74
2022/01/02 06:05:51;;;;;;;5.03;4.63;;;;;;;9.28;100.00;62952.63;5124397;28;20280;-74
2022/01/02 06:08:18;;;;;;;4.93;4.40;;;;;;;9.27;100.00;62949.56;5107032;28;20261;-75
2022/01/02 06:10:44;;;;;;;4.97;4.47;;;;;;;9.24;100.00;62945.94;5104064;28;20223;-75
2022/01/02 06:13:11;;;;;;;5.30;4.88;;;;;;;9.28;100.00;62955.66;5114053;28;20320;-74
2022/01/02 06:15:38;;;;;;;5.53;5.07;;;;;;;9.29;100.00;62953.63;5103489;28;20388;-75
2022/01/02 06:18:05;;;;;;;5.57;5.07;;;;;;;9.28;100.00;62950.06;5103484;28;20480;-75
2022/01/02 06:20:33;;;;;;;4.90;4.60;;;;;;;9.32;100.00;62964.88;5103084;28;20199;-75
2022/01/02 06:23:00;;;;;;;5.50;4.97;;;;;;;9.38;100.00;62965.50;5103400;28;20227;-75
2022/01/02 06:25:27;;;;;;;7.10;4.90;;;;;;;9.35;100.00;62957.31;5103295;28;20231;-76
2022/01/02 06:27:54;;;;;;;4.93;4.00;;;;;;;9.38;100.00;62960.41;5103418;28;20202;-75
2022/01/02 06:30:21;;;;;;;5.35;4.85;;;;;;;9.28;100.00;62957.69;5105195;28;20385;-76
2022/01/02 06:32:48;;;;;;;5.35;4.85;;;;;;;9.28;100.00;62955.16;5110178;28;20204;-76
2022/01/02 06:35:15;;;;;;;6.50;5.60;;;;;;;9.17;100.00;62939.22;5112418;28;20291;-75
2022/01/02 06:37:43;;;;;;;10.07;7.97;;;;;;;9.29;100.00;62956.19;5107246;28;20211;-75
2022/01/02 06:40:11;;;;;;;6.78;4.82;;;;;;;9.24;100.00;62951.53;5105943;28;20265;-75
2022/01/02 06:42:37;;;;;;;6.25;5.60;;;;;;;9.23;100.00;62952.53;5107092;28;20200;-76
2022/01/02 06:45:05;;;;;;;5.00;4.53;;;;;;;9.23;100.00;62947.94;5105317;28;20272;-76
2022/01/02 06:47:32;;;;;;;4.35;3.95;;;;;;;9.33;100.00;62957.78;5107045;28;20196;-76
2022/01/02 06:49:59;;;;;;;8.73;4.70;;;;;;;9.48;100.00;62972.75;5106302;28;20258;-76
2022/01/02 06:52:26;;;;;;;4.82;4.43;;;;;;;9.40;100.00;62961.97;5107057;28;20207;-75
2022/01/02 06:54:54;;;;;;;4.63;4.22;;;;;;;9.48;100.00;62975.31;5110749;28;20220;-77
2022/01/02 06:57:21;;;;;;;6.82;4.78;;;;;;;9.47;100.00;62972.25;5105752;28;20459;-76
2022/01/02 06:59:48;;;;;;;3.90;3.60;;;;;;;9.51;100.00;62975.88;5105920;28;20231;-76
2022/01/02 07:02:16;;;;;;;4.32;4.03;;;;;;;9.55;100.00;62982.53;5106517;28;20200;-75
2022/01/02 07:04:42;;;;;;;4.95;4.50;;;;;;;9.60;100.00;62988.22;5109594;28;20215;-77
2022/01/02 07:07:10;;;;;;;4.75;4.35;;;;;;;9.76;100.00;63004.25;5109424;28;20212;-76
2022/01/02 07:09:37;;;;;;;4.20;3.90;;;;;;;9.74;100.00;62997.63;5108358;28;20212;-76
2022/01/02 07:12:06;;;;;;;4.10;3.80;;;;;;;9.74;100.00;63000.19;5106101;28;20203;-77
2022/01/02 07:14:33;;;;;;;4.97;4.57;;;;;;;9.79;100.00;63002.28;5105636;28;20223;-77
2022/01/02 07:17:00;;;;;;;4.13;3.92;;;;;;;9.78;100.00;63006.34;5106701;28;20558;-76
2022/01/02 07:19:27;;;;;;;3.70;3.40;;;;;;;9.72;100.00;62997.59;5106922;28;20532;-76
2022/01/02 07:21:55;;;;;;;6.50;5.90;;;;;;;9.74;100.00;62999.66;5106554;28;20376;-75
2022/01/02 07:24:21;;;;;;;4.10;3.75;;;;;;;9.75;100.00;63003.25;5105741;28;20243;-76
2022/01/02 07:26:48;;;;;;;3.53;3.22;;;;;;;9.74;100.00;63000.19;5106800;28;20242;-75
2022/01/02 07:29:17;;;;;;;3.97;3.67;;;;;;;9.75;100.00;63003.25;5108046;28;20254;-76
2022/01/02 07:31:44;;;;;;;3.50;3.30;;;;;;;9.80;100.00;63008.41;5087693;28;20200;-75
2022/01/02 07:34:10;;;;;;;3.85;2.88;;;;;;;10.03;100.00;63027.63;5085824;28;20216;-76
2022/01/02 07:36:39;;;;;;;3.88;3.58;;;;;;;10.11;99.17;63032.88;5085589;28;20223;-76
2022/01/02 07:39:07;;;;;;;3.95;2.90;;;;;;;10.07;98.75;63031.25;5108909;28;20231;-77
2022/01/02 07:41:34;;;;;;;3.42;3.13;;;;;;;10.07;99.15;63039.41;5116602;28;20207;-76
2022/01/02 07:44:03;;;;;;;3.38;3.17;;;;;;;10.03;99.15;63027.63;5105268;28;20412;-75
2022/01/02 07:46:32;;;;;;;3.80;3.50;;;;;;;9.89;99.97;63013.13;5105842;28;20265;-75
2022/01/02 07:48:59;;;;;;;3.70;3.38;;;;;;;9.78;100.00;63009.41;5106219;28;20223;-76
2022/01/02 07:51:25;;;;;;;3.78;3.50;;;;;;;9.71;100.00;62999.09;5106146;28;20195;-75
2022/01/02 07:53:52;;;;;;;4.28;3.97;;;;;;;9.62;100.00;62985.22;5108523;28;20337;-75
2022/01/02 07:56:19;;;;;;;3.50;3.30;;;;;;;9.60;100.00;62982.63;5110062;28;20259;-75
2022/01/02 07:58:46;;;;;;;3.63;3.42;;;;;;;9.56;100.00;62979.00;5112575;28;20238;-77
2022/01/02 08:01:13;;;;;;;4.30;4.00;;;;;;;9.38;100.00;62965.50;5114413;28;20212;-75
2022/01/02 08:03:41;;;;;;;4.25;3.85;;;;;;;9.34;100.00;62958.81;5116516;28;20216;-75
2022/01/02 08:06:08;;;;;;;5.45;4.88;;;;;;;9.47;100.00;62971.75;5111534;28;20228;-76
2022/01/02 08:08:35;;;;;;;7.85;4.15;;;;;;;9.53;100.00;62978.44;5107666;28;20260;-75
2022/01/02 08:11:01;;;;;;;4.65;4.25;;;;;;;9.55;100.00;62977.47;5115457;28;20195;-75
2022/01/02 08:13:28;;;;;;;4.80;4.40;;;;;;;9.57;100.00;62980.06;5123244;28;20465;-76
2022/01/02 08:15:55;;;;;;;4.07;3.78;;;;;;;9.57;100.00;62982.59;5106487;28;20204;-77
2022/01/02 08:18:22;;;;;;;3.50;3.28;;;;;;;9.61;100.00;62988.75;5105886;28;20409;-77
2022/01/02 08:20:50;;;;;;;4.20;3.90;;;;;;;9.52;100.00;62974.38;5106144;28;20191;-77
2022/01/02 08:23:17;;;;;;;4.38;4.05;;;;;;;9.47;100.00;62974.81;5106521;28;20216;-78
2022/01/02 08:25:44;;;;;;;4.32;4.00;;;;;;;9.48;100.00;62977.84;5107860;28;20231;-76
2022/01/02 08:28:10;;;;;;;3.90;3.60;;;;;;;9.54;100.00;62982.03;5106887;28;20207;-75
2022/01/02 08:30:39;;;;;;;4.20;3.90;;;;;;;9.61;100.00;62991.81;5104577;28;20196;-74
2022/01/02 08:33:07;;;;;;;4.30;3.80;;;;;;;9.70;100.00;62998.56;5104453;28;20196;-75
2022/01/02 08:35:34;;;;;;;13.07;9.25;;;;;;;9.85;100.00;63014.09;5105408;28;20504;-73
2022/01/02 08:38:02;;;;;;;3.88;3.60;;;;;;;9.86;100.00;63015.13;5104385;28;20198;-75
2022/01/02 08:40:29;;;;;;;4.00;3.80;;;;;;;9.95;100.00;63021.38;5104130;28;20241;-77
2022/01/02 08:42:56;;;;;;;4.50;3.45;;;;;;;9.99;100.00;63030.59;5104526;28;20200;-77
2022/01/02 08:45:23;;;;;;;4.13;3.83;;;;;;;9.90;98.90;63018.75;5104986;28;20238;-77
2022/01/02 08:47:50;;;;;;;3.33;3.13;;;;;;;9.92;98.42;63021.31;5105221;28;20203;-75
2022/01/02 08:50:17;;;;;;;3.55;3.35;;;;;;;9.97;98.19;63026.50;5103289;28;20216;-76
2022/01/02 08:52:43;;;;;;;3.10;2.85;;;;;;;10.00;96.63;63024.00;5103421;28;20196;-76
2022/01/02 08:55:12;;;;;;;3.28;3.08;;;;;;;10.18;96.21;63043.16;5109915;28;20220;-76
2022/01/02 08:57:38;;;;;;;3.63;3.33;;;;;;;10.17;95.40;63049.25;5108499;28;20223;-75
2022/01/02 09:00:07;;;;;;;3.25;3.05;;;;;;;10.16;94.91;63046.16;5104403;28;20220;-76
2022/01/02 09:02:34;;;;;;;3.95;3.60;;;;;;;10.10;95.78;63034.38;5104326;28;20259;-76
2022/01/02 09:05:01;;;;;;;3.60;3.30;;;;;;;10.17;95.02;63039.06;5103869;28;20528;-76
2022/01/02 09:07:28;;;;;;;3.83;3.53;;;;;;;10.10;95.48;63039.97;5104376;28;20228;-75
2022/01/02 09:09:55;;;;;;;3.20;3.05;;;;;;;10.08;94.18;63035.34;5103066;28;20433;-76
2022/01/02 09:12:23;;;;;;;3.90;3.70;;;;;;;10.15;94.64;63045.16;5107073;28;20249;-75
2022/01/02 09:14:50;;;;;;;3.53;3.00;;;;;;;10.12;95.99;63041.53;5108446;28;20577;-76
2022/01/02 09:17:17;;;;;;;3.00;2.80;;;;;;;10.06;94.30;63035.81;5109234;28;20196;-76
2022/01/02 09:19:44;;;;;;;3.92;3.72;;;;;;;10.00;95.97;63032.16;5103044;28;20220;-77
2022/01/02 09:22:11;;;;;;;3.55;3.25;;;;;;;9.96;95.41;63019.84;5111786;28;20277;-77
2022/01/02 09:24:38;;;;;;;3.90;3.50;;;;;;;10.08;94.80;63039.91;5103895;28;20223;-76
2022/01/02 09:27:05;;;;;;;2.83;2.67;;;;;;;10.16;92.62;63045.66;5103859;28;20579;-77
2022/01/02 09:29:34;;;;;;;20.20;11.98;;;;;;;10.32;92.19;63070.38;5102324;28;20273;-77
2022/01/02 09:32:02;;;;;;;3.45;2.92;;;;;;;10.25;91.16;63052.94;5108898;28;20192;-77
2022/01/02 09:34:30;;;;;;;3.50;3.30;;;;;;;10.38;90.75;63068.44;5111978;28;20288;-77
2022/01/02 09:36:56;;;;;;;3.50;3.13;;;;;;;10.26;90.50;63056.00;5111213;28;20192;-77
2022/01/02 09:39:23;;;;;;;3.20;3.00;;;;;;;10.37;88.95;63065.34;5111447;28;20215;-77
2022/01/02 09:41:50;;;;;;;3.22;3.03;;;;;;;10.51;90.45;63079.31;5095425;28;20203;-76
2022/01/02 09:44:17;;;;;;;3.38;3.20;;;;;;;10.56;91.47;63087.03;5099313;28;20220;-77
2022/01/02 09:46:46;;;;;;;2.67;2.58;;;;;;;10.71;86.89;63107.16;5103514;28;20535;-76
2022/01/02 09:49:13;;;;;;;2.35;2.25;;;;;;;10.34;86.27;63062.25;5103644;28;20238;-76
2022/01/02 09:51:41;;;;;;;2.92;2.72;;;;;;;10.48;87.89;63081.31;5114021;28;20202;-76
2022/01/02 09:54:10;;;;;;;3.60;3.30;;;;;;;10.61;87.47;63089.69;5124666;28;20592;-77
2022/01/02 09:56:37;;;;;;;3.78;2.80;;;;;;;10.80;86.70;63106.28;5110347;28;20242;-77
2022/01/02 09:59:04;;;;;;;4.18;3.88;;;;;;;10.85;86.28;63116.56;5107569;28;20246;-77
2022/01/02 10:01:32;;;;;;;4.35;3.60;;;;;;;10.93;84.91;63122.28;5105294;28;20217;-76
2022/01/02 10:04:00;;;;;;;3.55;3.25;;;;;;;11.01;82.65;63133.63;5105295;28;20223;-76
2022/01/02 10:06:40;;;;;;;3.60;3.30;;;;;;;10.88;83.83;63119.66;5106879;28;20224;-76
2022/01/02 10:09:11;;;;;;;2.92;2.63;;;;;;;11.11;82.29;63143.47;5120748;28;20274;-76
2022/01/02 10:11:40;;;;;;;4.32;3.30;;;;;;;11.24;81.12;63159.47;5129140;28;20203;-77
2022/01/02 10:14:10;;;;;;;3.38;3.13;;;;;;;11.41;80.56;63169.44;5121051;28;20230;-76
2022/01/02 10:16:39;;;;;;;3.10;2.90;;;;;;;11.57;79.22;63186.03;5107547;28;20532;-76
2022/01/02 10:19:26;;;;;;;3.45;3.15;;;;;;;11.24;81.26;63157.47;5104355;28;20242;-76
2022/01/02 10:21:55;;;;;;;3.33;3.10;;;;;;;11.37;80.53;63170.91;5104431;28;20204;-77
2022/01/02 10:24:27;;;;;;;4.88;3.22;;;;;;;11.11;82.61;63143.97;5113218;28;20245;-77
2022/01/02 10:27:14;;;;;;;2.95;2.75;;;;;;;10.86;83.23;63115.56;5113956;28;20303;-78
2022/01/02 10:29:47;;;;;;;3.58;3.28;;;;;;;10.95;84.63;63127.44;5115834;28;20279;-78
2022/01/02 10:32:25;;;;;;;4.07;3.78;;;;;;;10.92;85.48;63124.34;5115909;28;20234;-77
2022/01/02 10:35:06;;;;;;;3.92;3.63;;;;;;;10.94;85.62;63123.84;5113027;28;20223;-78
2022/01/02 10:37:33;;;;;;;3.20;3.00;;;;;;;10.72;87.72;63100.53;5089776;28;20433;-77
2022/01/02 10:40:00;;;;;;;2.78;2.63;;;;;;;10.73;86.31;63104.13;5108700;28;20224;-77
2022/01/02 10:42:27;;;;;;;3.25;3.05;;;;;;;10.89;85.81;63118.16;5112108;28;20196;-77
2022/01/02 10:44:54;;;;;;;3.00;2.75;;;;;;;10.87;85.49;63119.13;5105522;28;20512;-77
2022/01/02 10:47:24;;;;;;;3.78;2.58;;;;;;;10.97;84.84;63132.06;5124790;28;20268;-77
2022/01/02 10:49:55;;;;;;;2.92;2.72;;;;;;;10.96;84.97;63128.47;5116032;28;20232;-77
2022/01/02 10:52:23;;;;;;;3.13;2.92;;;;;;;11.08;84.03;63140.88;5100347;28;20217;-77
2022/01/02 10:54:51;;;;;;;2.97;2.88;;;;;;;11.16;85.15;63149.19;5107570;28;20220;-78
2022/01/02 10:57:18;;;;;;;3.30;3.10;;;;;;;11.05;86.14;63132.69;5108068;28;20207;-78
2022/01/02 10:59:46;;;;;;;3.30;3.05;;;;;;;11.25;85.26;63155.44;5104393;28;20231;-78
2022/01/02 11:02:14;;;;;;;3.70;3.28;;;;;;;11.40;84.42;63173.50;5106529;28;20223;-78
2022/01/02 11:04:47;;;;;;;3.03;2.83;;;;;;;11.53;81.78;63182.41;5104955;28;20227;-78
2022/01/02 11:07:21;;;;;;;4.50;2.90;;;;;;;11.63;80.62;63192.75;5105147;28;20465;-78
2022/01/02 11:09:49;;;;;;;2.30;2.20;;;;;;;11.25;82.21;63163.09;5107388;28;20220;-78
2022/01/02 11:12:16;;;;;;;5.70;5.18;;;;;;;11.26;81.89;63156.47;5107707;28;20196;-78
2022/01/02 11:14:44;;;;;;;2.88;2.67;;;;;;;11.26;82.27;63156.47;5105057;28;20240;-78
2022/01/02 11:17:13;;;;;;;2.38;2.28;;;;;;;11.20;81.83;63150.75;5107102;28;20211;-78
2022/01/02 11:19:40;;;;;;;2.38;2.28;;;;;;;11.10;81.63;63142.97;5103926;28;20223;-77
2022/01/02 11:22:11;;;;;;;2.63;2.42;;;;;;;11.05;81.39;63137.25;5102196;28;20204;-78
2022/01/02 11:24:47;;;;;;;2.97;2.67;;;;;;;10.98;82.80;63125.44;5104063;28;20540;-78
2022/01/02 11:27:23;;;;;;;2.90;2.70;;;;;;;11.09;82.58;63136.84;5106316;28;20227;-77
2022/01/02 11:29:50;;;;;;;3.17;2.95;;;;;;;11.08;82.24;63143.44;5106898;28;20220;-78
2022/01/02 11:32:25;;;;;;;2.53;2.42;;;;;;;11.28;81.94;63158.53;5107113;28;20200;-77
2022/01/02 11:34:55;;;;;;;2.60;2.50;;;;;;;11.43;80.92;63174.59;5103788;28;20245;-78
2022/01/02 11:37:25;;;;;;;3.03;2.75;;;;;;;11.20;81.00;63150.25;5107113;28;20259;-77
2022/01/02 11:39:58;;;;;;;3.47;2.95;;;;;;;11.23;82.01;63150.81;5103998;28;20228;-78
2022/01/02 11:42:48;;;;;;;2.75;2.65;;;;;;;11.28;82.22;63158.53;5110678;28;20221;-78